sensor_id;sensor_type;location;lat;lon;timestamp;pressure;altitude;pressure_sealevel;temperature;humidity
50057;BME280;36875;49.468;11.200;2023-05-08T00:02:30;98346.75;;;19.12;48.16
50057;BME280;36875;49.468;11.200;2023-05-08T00:04:55;98345.91;;;19.11;47.98
50057;BME280;36875;49.468;11.200;2023-05-08T00:07:21;98341.59;;;19.10;48.05
50057;BME280;36875;49.468;11.200;2023-05-08T00:09:47;98339.66;;;19.11;48.09
50057;BME280;36875;49.468;11.200;2023-05-08T00:12:12;98336.13;;;19.10;48.22
50057;BME280;36875;49.468;11.200;2023-05-08T00:14:38;98341.06;;;19.08;47.80
50057;BME280;36875;49.468;11.200;2023-05-08T00:17:03;98341.88;;;19.09;47.81
50057;BME280;36875;49.468;11.200;2023-05-08T00:19:30;98346.22;;;19.10;47.86
50057;BME280;36875;49.468;11.200;2023-05-08T00:21:56;98334.50;;;19.09;47.89
50057;BME280;36875;49.468;11.200;2023-05-08T00:24:21;98335.28;;;19.10;47.85
50057;BME280;36875;49.468;11.200;2023-05-08T00:26:46;98339.16;;;19.09;47.95
50057;BME280;36875;49.468;11.200;2023-05-08T00:29:12;98336.41;;;19.09;48.01
50057;BME280;36875;49.468;11.200;2023-05-08T00:31:37;98332.56;;;19.10;47.93
50057;BME280;36875;49.468;11.200;2023-05-08T00:34:03;98331.75;;;19.09;48.20
50057;BME280;36875;49.468;11.200;2023-05-08T00:36:30;98336.41;;;19.09;47.64
50057;BME280;36875;49.468;11.200;2023-05-08T00:38:56;98331.75;;;19.09;47.98
50057;BME280;36875;49.468;11.200;2023-05-08T00:41:21;98327.44;;;19.08;48.10
50057;BME280;36875;49.468;11.200;2023-05-08T00:43:47;98338.34;;;19.08;47.62
50057;BME280;36875;49.468;11.200;2023-05-08T00:46:13;98330.97;;;19.09;47.77
50057;BME280;36875;49.468;11.200;2023-05-08T00:48:38;98337.22;;;19.09;48.07
50057;BME280;36875;49.468;11.200;2023-05-08T00:51:05;98336.41;;;19.09;47.67
50057;BME280;36875;49.468;11.200;2023-05-08T00:53:36;98332.06;;;19.07;47.77
50057;BME280;36875;49.468;11.200;2023-05-08T00:56:04;98326.09;;;19.05;48.19
50057;BME280;36875;49.468;11.200;2023-05-08T00:58:31;98334.78;;;19.07;47.99
50057;BME280;36875;49.468;11.200;2023-05-08T01:00:57;98329.31;;;19.07;47.73
50057;BME280;36875;49.468;11.200;2023-05-08T01:03:24;98329.94;;;19.04;47.67
50057;BME280;36875;49.468;11.200;2023-05-08T01:05:50;98339.16;;;19.09;47.51
50057;BME280;36875;49.468;11.200;2023-05-08T01:08:15;98335.63;;;19.08;47.74
50057;BME280;36875;49.468;11.200;2023-05-08T01:10:46;98340.25;;;19.07;47.64
50057;BME280;36875;49.468;11.200;2023-05-08T01:13:19;98340.25;;;19.07;47.64
50057;BME280;36875;49.468;11.200;2023-05-08T01:15:52;98347.34;;;19.09;47.81
50057;BME280;36875;49.468;11.200;2023-05-08T01:18:21;98340.25;;;19.07;47.57
50057;BME280;36875;49.468;11.200;2023-05-08T01:20:53;98345.69;;;19.07;47.69
50057;BME280;36875;49.468;11.200;2023-05-08T01:23:51;98349.53;;;19.06;47.58
50057;BME280;36875;49.468;11.200;2023-05-08T01:26:40;98348.41;;;19.07;47.81
50057;BME280;36875;49.468;11.200;2023-05-08T01:29:28;98352.28;;;19.06;47.60
50057;BME280;36875;49.468;11.200;2023-05-08T01:32:10;98366.72;;;19.07;47.65
50057;BME280;36875;49.468;11.200;2023-05-08T01:34:41;98360.47;;;19.06;47.74
50057;BME280;36875;49.468;11.200;2023-05-08T01:37:13;98363.97;;;19.07;47.50
50057;BME280;36875;49.468;11.200;2023-05-08T01:39:44;98365.91;;;19.06;47.40
50057;BME280;36875;49.468;11.200;2023-05-08T01:42:20;98365.91;;;19.06;47.82
50057;BME280;36875;49.468;11.200;2023-05-08T01:44:52;98368.63;;;19.06;47.44
50057;BME280;36875;49.468;11.200;2023-05-08T01:47:20;98368.63;;;19.06;47.49
50057;BME280;36875;49.468;11.200;2023-05-08T01:49:49;98373.56;;;19.04;47.69
50057;BME280;36875;49.468;11.200;2023-05-08T01:52:26;98377.41;;;19.03;47.50
50057;BME280;36875;49.468;11.200;2023-05-08T01:54:57;98373.06;;;19.02;47.53
50057;BME280;36875;49.468;11.200;2023-05-08T01:57:27;98381.47;;;19.06;47.51
50057;BME280;36875;49.468;11.200;2023-05-08T01:59:54;98385.28;;;19.05;47.53
50057;BME280;36875;49.468;11.200;2023-05-08T02:02:22;98379.03;;;19.04;47.72
50057;BME280;36875;49.468;11.200;2023-05-08T02:04:49;98392.38;;;19.06;47.35
50057;BME280;36875;49.468;11.200;2023-05-08T02:07:18;98380.63;;;19.05;47.77
50057;BME280;36875;49.468;11.200;2023-05-08T02:09:47;98392.38;;;19.06;47.78
50057;BME280;36875;49.468;11.200;2023-05-08T02:12:15;98388.03;;;19.05;47.65
50057;BME280;36875;49.468;11.200;2023-05-08T02:14:41;98397.00;;;19.05;47.64
50057;BME280;36875;49.468;11.200;2023-05-08T02:17:08;98391.56;;;19.05;47.44
50057;BME280;36875;49.468;11.200;2023-05-08T02:19:38;98399.75;;;19.05;47.88
50057;BME280;36875;49.468;11.200;2023-05-08T02:22:06;98396.22;;;19.05;47.71
50057;BME280;36875;49.468;11.200;2023-05-08T02:24:33;98398.94;;;19.05;47.59
50057;BME280;36875;49.468;11.200;2023-05-08T02:27:00;98396.22;;;19.05;47.42
50057;BME280;36875;49.468;11.200;2023-05-08T02:29:26;98396.22;;;19.05;47.78
50057;BME280;36875;49.468;11.200;2023-05-08T02:31:53;98398.13;;;19.04;47.73
50057;BME280;36875;49.468;11.200;2023-05-08T02:34:20;98391.56;;;19.05;47.74
50057;BME280;36875;49.468;11.200;2023-05-08T02:36:49;98393.75;;;19.03;47.45
50057;BME280;36875;49.468;11.200;2023-05-08T02:39:16;98401.66;;;19.05;47.51
50057;BME280;36875;49.468;11.200;2023-05-08T02:41:44;98388.81;;;19.05;47.52
50057;BME280;36875;49.468;11.200;2023-05-08T02:44:10;98389.94;;;19.04;47.44
50057;BME280;36875;49.468;11.200;2023-05-08T02:46:43;98395.69;;;19.03;47.95
50057;BME280;36875;49.468;11.200;2023-05-08T02:49:14;98403.59;;;19.04;47.76
50057;BME280;36875;49.468;11.200;2023-05-08T02:51:49;98406.31;;;19.04;47.89
50057;BME280;36875;49.468;11.200;2023-05-08T02:54:23;98409.03;;;19.04;47.51
50057;BME280;36875;49.468;11.200;2023-05-08T02:56:52;98406.31;;;19.04;47.73
50057;BME280;36875;49.468;11.200;2023-05-08T02:59:23;98409.03;;;19.04;47.76
50057;BME280;36875;49.468;11.200;2023-05-08T03:01:58;98403.59;;;19.04;47.53
50057;BME280;36875;49.468;11.200;2023-05-08T03:04:27;98399.22;;;19.03;47.72
50057;BME280;36875;49.468;11.200;2023-05-08T03:06:56;98400.03;;;19.04;47.45
50057;BME280;36875;49.468;11.200;2023-05-08T03:09:23;98395.97;;;19.01;47.42
50057;BME280;36875;49.468;11.200;2023-05-08T03:11:58;98414.50;;;19.04;47.45
50057;BME280;36875;49.468;11.200;2023-05-08T03:14:27;98401.16;;;19.03;47.86
50057;BME280;36875;49.468;11.200;2023-05-08T03:16:54;98403.59;;;19.04;47.79
50057;BME280;36875;49.468;11.200;2023-05-08T03:19:26;98400.03;;;19.04;47.42
50057;BME280;36875;49.468;11.200;2023-05-08T03:21:55;98401.94;;;19.03;47.77
50057;BME280;36875;49.468;11.200;2023-05-08T03:24:23;98400.03;;;19.04;47.36
50057;BME280;36875;49.468;11.200;2023-05-08T03:26:50;98408.22;;;19.04;47.67
50057;BME280;36875;49.468;11.200;2023-05-08T03:29:17;98390.00;;;18.99;47.45
50057;BME280;36875;49.468;11.200;2023-05-08T03:31:43;98404.69;;;19.03;47.34
50057;BME280;36875;49.468;11.200;2023-05-08T03:34:11;98401.44;;;19.01;47.37
50057;BME280;36875;49.468;11.200;2023-05-08T03:36:37;98402.75;;;19.04;47.24
50057;BME280;36875;49.468;11.200;2023-05-08T03:39:04;98403.88;;;19.03;47.30
50057;BME280;36875;49.468;11.200;2023-05-08T03:41:30;98403.88;;;19.03;47.60
50057;BME280;36875;49.468;11.200;2023-05-08T03:43:56;98401.94;;;19.03;47.70
50057;BME280;36875;49.468;11.200;2023-05-08T03:46:22;98396.78;;;19.02;47.30
50057;BME280;36875;49.468;11.200;2023-05-08T03:48:50;98394.88;;;19.02;47.36
50057;BME280;36875;49.468;11.200;2023-05-08T03:51:17;98399.78;;;19.00;47.36
50057;BME280;36875;49.468;11.200;2023-05-08T03:53:43;98397.63;;;19.02;47.53
50057;BME280;36875;49.468;11.200;2023-05-08T03:56:10;98387.84;;;18.96;47.30
50057;BME280;36875;49.468;11.200;2023-05-08T03:58:37;98403.06;;;19.02;47.52
50057;BME280;36875;49.468;11.200;2023-05-08T04:01:07;98402.25;;;19.02;47.52
50057;BME280;36875;49.468;11.200;2023-05-08T04:03:46;98397.06;;;19.00;47.34
50057;BME280;36875;49.468;11.200;2023-05-08T04:06:19;98401.72;;;19.00;47.32
50057;BME280;36875;49.468;11.200;2023-05-08T04:08:48;98404.97;;;19.02;47.36
50057;BME280;36875;49.468;11.200;2023-05-08T04:11:25;98403.66;;;18.99;47.28
50057;BME280;36875;49.468;11.200;2023-05-08T04:14:00;98410.41;;;19.02;47.45
50057;BME280;36875;49.468;11.200;2023-05-08T04:16:32;98407.47;;;18.98;47.19
50057;BME280;36875;49.468;11.200;2023-05-08T04:19:01;98406.88;;;19.01;47.27
50057;BME280;36875;49.468;11.200;2023-05-08T04:21:28;98417.78;;;19.01;47.12
50057;BME280;36875;49.468;11.200;2023-05-08T04:23:55;98411.53;;;19.01;47.23
50057;BME280;36875;49.468;11.200;2023-05-08T04:26:23;98418.88;;;19.00;47.24
50057;BME280;36875;49.468;11.200;2023-05-08T04:28:49;98428.72;;;19.01;47.48
50057;BME280;36875;49.468;11.200;2023-05-08T04:31:15;98427.91;;;19.01;47.56
50057;BME280;36875;49.468;11.200;2023-05-08T04:33:42;98428.72;;;19.01;47.08
50057;BME280;36875;49.468;11.200;2023-05-08T04:36:10;98430.91;;;18.99;47.23
50057;BME280;36875;49.468;11.200;2023-05-08T04:38:36;98434.97;;;19.02;47.36
50057;BME280;36875;49.468;11.200;2023-05-08T04:41:02;98436.88;;;19.01;47.42
50057;BME280;36875;49.468;11.200;2023-05-08T04:43:29;98436.09;;;19.01;47.43
50057;BME280;36875;49.468;11.200;2023-05-08T04:45:54;98439.63;;;19.01;47.34
50057;BME280;36875;49.468;11.200;2023-05-08T04:48:20;98438.31;;;18.99;47.49
50057;BME280;36875;49.468;11.200;2023-05-08T04:50:46;98444.28;;;19.01;47.49
50057;BME280;36875;49.468;11.200;2023-05-08T04:53:11;98449.72;;;19.01;47.18
50057;BME280;36875;49.468;11.200;2023-05-08T04:55:36;98448.88;;;19.00;47.37
50057;BME280;36875;49.468;11.200;2023-05-08T04:58:02;98454.34;;;19.00;47.04
50057;BME280;36875;49.468;11.200;2023-05-08T05:00:29;98451.63;;;19.00;47.17
50057;BME280;36875;49.468;11.200;2023-05-08T05:02:54;98454.34;;;19.00;47.06
50057;BME280;36875;49.468;11.200;2023-05-08T05:05:20;98450.81;;;19.00;47.21
50057;BME280;36875;49.468;11.200;2023-05-08T05:07:45;98454.34;;;19.00;47.34
50057;BME280;36875;49.468;11.200;2023-05-08T05:10:11;98456.56;;;18.98;47.30
50057;BME280;36875;49.468;11.200;2023-05-08T05:12:37;98455.47;;;18.99;47.31
50057;BME280;36875;49.468;11.200;2023-05-08T05:15:03;98458.19;;;18.99;47.41
50057;BME280;36875;49.468;11.200;2023-05-08T05:17:30;98463.66;;;18.99;47.44
50057;BME280;36875;49.468;11.200;2023-05-08T05:19:56;98457.69;;;18.97;47.37
50057;BME280;36875;49.468;11.200;2023-05-08T05:22:21;98459.81;;;19.00;47.60
50057;BME280;36875;49.468;11.200;2023-05-08T05:24:47;98461.72;;;19.00;47.66
50057;BME280;36875;49.468;11.200;2023-05-08T05:27:13;98460.91;;;18.99;47.94
50057;BME280;36875;49.468;11.200;2023-05-08T05:29:38;98461.72;;;19.00;47.54
50057;BME280;36875;49.468;11.200;2023-05-08T05:32:04;98453.31;;;18.96;48.07
50057;BME280;36875;49.468;11.200;2023-05-08T05:34:32;98461.72;;;19.00;48.11
50057;BME280;36875;49.468;11.200;2023-05-08T05:37:00;98455.19;;;19.01;48.02
50057;BME280;36875;49.468;11.200;2023-05-08T05:39:26;98460.63;;;19.01;48.16
50057;BME280;36875;49.468;11.200;2023-05-08T05:41:51;98469.09;;;18.99;48.19
50057;BME280;36875;49.468;11.200;2023-05-08T05:44:17;98459.81;;;19.00;48.37
50057;BME280;36875;49.468;11.200;2023-05-08T05:46:42;98471.53;;;19.01;48.36
50057;BME280;36875;49.468;11.200;2023-05-08T05:49:08;98474.28;;;19.01;48.46
50057;BME280;36875;49.468;11.200;2023-05-08T05:51:35;98475.88;;;19.02;48.59
50057;BME280;36875;49.468;11.200;2023-05-08T05:54:00;98475.06;;;19.01;48.31
50057;BME280;36875;49.468;11.200;2023-05-08T05:56:26;98483.25;;;19.01;48.60
50057;BME280;36875;49.468;11.200;2023-05-08T05:58:52;98477.81;;;19.01;48.72
50057;BME280;36875;49.468;11.200;2023-05-08T06:01:17;98477.81;;;19.01;48.15
50057;BME280;36875;49.468;11.200;2023-05-08T06:03:42;98478.91;;;19.00;48.15
50057;BME280;36875;49.468;11.200;2023-05-08T06:06:08;98479.22;;;18.99;48.11
50057;BME280;36875;49.468;11.200;2023-05-08T06:08:35;98482.47;;;19.01;48.18
50057;BME280;36875;49.468;11.200;2023-05-08T06:11:01;98471.31;;;18.97;48.70
50057;BME280;36875;49.468;11.200;2023-05-08T06:13:26;98479.50;;;18.97;48.52
50057;BME280;36875;49.468;11.200;2023-05-08T06:15:53;98481.06;;;19.03;48.69
50057;BME280;36875;49.468;11.200;2023-05-08T06:18:20;98488.72;;;19.01;47.42
50057;BME280;36875;49.468;11.200;2023-05-08T06:20:46;98483.84;;;18.98;47.07
50057;BME280;36875;49.468;11.200;2023-05-08T06:23:11;98479.22;;;18.99;47.48
50057;BME280;36875;49.468;11.200;2023-05-08T06:25:38;98480.00;;;18.99;47.63
50057;BME280;36875;49.468;11.200;2023-05-08T06:28:04;98481.63;;;19.00;47.88
50057;BME280;36875;49.468;11.200;2023-05-08T06:30:32;98481.09;;;18.98;47.82
50057;BME280;36875;49.468;11.200;2023-05-08T06:32:57;98480.00;;;18.99;47.83
50057;BME280;36875;49.468;11.200;2023-05-08T06:35:23;98486.56;;;18.98;47.62
50057;BME280;36875;49.468;11.200;2023-05-08T06:37:49;98490.13;;;18.99;47.74
50057;BME280;36875;49.468;11.200;2023-05-08T06:40:14;98489.28;;;18.98;47.50
50057;BME280;36875;49.468;11.200;2023-05-08T06:42:41;98484.66;;;18.99;47.70
50057;BME280;36875;49.468;11.200;2023-05-08T06:45:07;98490.94;;;18.99;47.28
50057;BME280;36875;49.468;11.200;2023-05-08T06:47:33;98487.41;;;18.99;47.47
50057;BME280;36875;49.468;11.200;2023-05-08T06:49:59;98483.84;;;18.98;47.00
50057;BME280;36875;49.468;11.200;2023-05-08T06:52:24;98487.69;;;18.97;47.18
50057;BME280;36875;49.468;11.200;2023-05-08T06:54:50;98481.41;;;18.97;46.77
50057;BME280;36875;49.468;11.200;2023-05-08T06:57:15;98481.09;;;18.98;47.02
50057;BME280;36875;49.468;11.200;2023-05-08T06:59:42;98481.94;;;18.99;46.75
50057;BME280;36875;49.468;11.200;2023-05-08T07:02:08;98490.13;;;18.99;46.91
50057;BME280;36875;49.468;11.200;2023-05-08T07:04:37;98479.50;;;18.97;46.79
50057;BME280;36875;49.468;11.200;2023-05-08T07:07:02;98483.03;;;18.98;46.90
50057;BME280;36875;49.468;11.200;2023-05-08T07:09:28;98483.84;;;18.98;46.67
50057;BME280;36875;49.468;11.200;2023-05-08T07:11:54;98473.53;;;18.95;46.85
50057;BME280;36875;49.468;11.200;2023-05-08T07:14:19;98482.75;;;18.99;46.94
50057;BME280;36875;49.468;11.200;2023-05-08T07:16:46;98485.75;;;18.98;46.79
50057;BME280;36875;49.468;11.200;2023-05-08T07:19:12;98481.94;;;18.99;47.01
50057;BME280;36875;49.468;11.200;2023-05-08T07:21:37;98478.38;;;18.98;46.93
50057;BME280;36875;49.468;11.200;2023-05-08T07:24:04;98481.09;;;18.98;47.18
50057;BME280;36875;49.468;11.200;2023-05-08T07:26:30;98488.19;;;18.99;46.87
50057;BME280;36875;49.468;11.200;2023-05-08T07:28:56;98490.13;;;18.99;46.87
50057;BME280;36875;49.468;11.200;2023-05-08T07:31:21;98487.41;;;18.99;46.79
50057;BME280;36875;49.468;11.200;2023-05-08T07:33:48;98490.13;;;18.99;47.20
50057;BME280;36875;49.468;11.200;2023-05-08T07:36:14;98488.19;;;18.99;47.20
50057;BME280;36875;49.468;11.200;2023-05-08T07:38:39;98489.28;;;18.98;47.04
50057;BME280;36875;49.468;11.200;2023-05-08T07:41:05;98492.00;;;18.98;47.20
50057;BME280;36875;49.468;11.200;2023-05-08T07:43:31;98490.94;;;18.99;47.08
50057;BME280;36875;49.468;11.200;2023-05-08T07:45:57;98484.66;;;18.99;47.22
50057;BME280;36875;49.468;11.200;2023-05-08T07:48:22;98490.94;;;18.99;47.00
50057;BME280;36875;49.468;11.200;2023-05-08T07:50:49;98491.72;;;19.00;47.10
50057;BME280;36875;49.468;11.200;2023-05-08T07:53:15;98494.75;;;18.98;47.11
50057;BME280;36875;49.468;11.200;2023-05-08T07:55:40;98493.66;;;18.99;46.93
50057;BME280;36875;49.468;11.200;2023-05-08T07:58:06;98485.25;;;18.96;47.32
50057;BME280;36875;49.468;11.200;2023-05-08T08:00:32;98492.00;;;18.98;47.02
50057;BME280;36875;49.468;11.200;2023-05-08T08:02:57;98492.00;;;18.98;47.36
50057;BME280;36875;49.468;11.200;2023-05-08T08:05:23;98490.13;;;18.99;47.01
50057;BME280;36875;49.468;11.200;2023-05-08T08:07:50;98492.00;;;18.98;47.39
50057;BME280;36875;49.468;11.200;2023-05-08T08:10:16;98492.84;;;18.99;47.25
50057;BME280;36875;49.468;11.200;2023-05-08T08:12:41;98498.31;;;18.99;47.39
50057;BME280;36875;49.468;11.200;2023-05-08T08:15:08;98495.88;;;18.97;47.35
50057;BME280;36875;49.468;11.200;2023-05-08T08:17:33;98494.75;;;18.98;47.08
50057;BME280;36875;49.468;11.200;2023-05-08T08:19:59;98500.19;;;18.98;47.00
50057;BME280;36875;49.468;11.200;2023-05-08T08:22:25;98493.94;;;18.98;47.12
50057;BME280;36875;49.468;11.200;2023-05-08T08:24:53;98493.94;;;18.98;47.44
50057;BME280;36875;49.468;11.200;2023-05-08T08:27:19;98486.63;;;18.93;47.17
50057;BME280;36875;49.468;11.200;2023-05-08T08:29:44;98493.94;;;18.98;47.49
50057;BME280;36875;49.468;11.200;2023-05-08T08:32:10;98492.00;;;18.98;47.23
50057;BME280;36875;49.468;11.200;2023-05-08T08:34:35;98492.00;;;18.98;47.21
50057;BME280;36875;49.468;11.200;2023-05-08T08:37:01;98494.75;;;18.98;47.31
50057;BME280;36875;49.468;11.200;2023-05-08T08:39:26;98490.94;;;18.99;47.29
50057;BME280;36875;49.468;11.200;2023-05-08T08:41:53;98494.75;;;18.98;47.36
50057;BME280;36875;49.468;11.200;2023-05-08T08:44:19;98488.19;;;18.99;47.53
50057;BME280;36875;49.468;11.200;2023-05-08T08:46:49;98493.66;;;18.99;47.73
50057;BME280;36875;49.468;11.200;2023-05-08T08:49:17;98484.66;;;18.99;47.23
50057;BME280;36875;49.468;11.200;2023-05-08T08:51:49;98476.53;;;18.94;47.67
50057;BME280;36875;49.468;11.200;2023-05-08T08:54:20;98489.00;;;19.00;47.55
50057;BME280;36875;49.468;11.200;2023-05-08T08:56:48;98488.19;;;18.99;47.45
50057;BME280;36875;49.468;11.200;2023-05-08T08:59:16;98485.47;;;18.99;47.66
50057;BME280;36875;49.468;11.200;2023-05-08T09:01:44;98469.22;;;18.89;47.48
50057;BME280;36875;49.468;11.200;2023-05-08T09:04:12;98488.19;;;18.99;47.20
50057;BME280;36875;49.468;11.200;2023-05-08T09:06:38;98483.59;;;18.95;47.71
50057;BME280;36875;49.468;11.200;2023-05-08T09:09:05;98479.78;;;18.96;47.47
50057;BME280;36875;49.468;11.200;2023-05-08T09:11:31;98482.75;;;18.99;47.43
50057;BME280;36875;49.468;11.200;2023-05-08T09:13:57;98484.94;;;18.97;47.93
50057;BME280;36875;49.468;11.200;2023-05-08T09:16:24;98492.53;;;19.00;47.50
50057;BME280;36875;49.468;11.200;2023-05-08T09:18:52;98496.09;;;19.01;47.87
50057;BME280;36875;49.468;11.200;2023-05-08T09:21:18;98497.19;;;19.00;47.65
50057;BME280;36875;49.468;11.200;2023-05-08T09:23:55;98489.81;;;19.00;47.43
50057;BME280;36875;49.468;11.200;2023-05-08T09:26:28;98487.06;;;19.00;47.88
50057;BME280;36875;49.468;11.200;2023-05-08T09:29:07;98484.34;;;19.00;47.40
50057;BME280;36875;49.468;11.200;2023-05-08T09:31:36;98481.63;;;19.00;47.42
50057;BME280;36875;49.468;11.200;2023-05-08T09:34:03;98482.47;;;19.01;47.49
50057;BME280;36875;49.468;11.200;2023-05-08T09:36:28;98481.63;;;19.00;47.74
50057;BME280;36875;49.468;11.200;2023-05-08T09:38:56;98485.19;;;19.01;47.88
50057;BME280;36875;49.468;11.200;2023-05-08T09:41:22;98484.06;;;19.02;47.75
50057;BME280;36875;49.468;11.200;2023-05-08T09:44:00;98487.06;;;19.00;47.67
50057;BME280;36875;49.468;11.200;2023-05-08T09:46:26;98481.63;;;19.00;47.81
50057;BME280;36875;49.468;11.200;2023-05-08T09:48:54;98482.47;;;19.01;47.46
50057;BME280;36875;49.468;11.200;2023-05-08T09:51:20;98484.34;;;19.00;48.07
50057;BME280;36875;49.468;11.200;2023-05-08T09:53:49;98487.91;;;19.01;48.03
50057;BME280;36875;49.468;11.200;2023-05-08T09:56:15;98490.63;;;19.01;47.69
50057;BME280;36875;49.468;11.200;2023-05-08T09:58:52;98492.53;;;19.00;47.49
50057;BME280;36875;49.468;11.200;2023-05-08T10:01:27;98492.53;;;19.00;47.97
50057;BME280;36875;49.468;11.200;2023-05-08T10:03:54;98486.28;;;19.00;47.71
50057;BME280;36875;49.468;11.200;2023-05-08T10:06:20;98493.09;;;19.02;47.65
50057;BME280;36875;49.468;11.200;2023-05-08T10:08:45;98490.63;;;19.01;47.72
50057;BME280;36875;49.468;11.200;2023-05-08T10:11:13;98488.72;;;19.01;47.63
50057;BME280;36875;49.468;11.200;2023-05-08T10:13:39;98488.72;;;19.01;48.06
50057;BME280;36875;49.468;11.200;2023-05-08T10:16:06;98485.19;;;19.01;47.67
50057;BME280;36875;49.468;11.200;2023-05-08T10:18:34;98493.09;;;19.02;47.82
50057;BME280;36875;49.468;11.200;2023-05-08T10:21:06;98475.38;;;19.00;48.05
50057;BME280;36875;49.468;11.200;2023-05-08T10:23:36;98483.25;;;19.01;47.71
50057;BME280;36875;49.468;11.200;2023-05-08T10:26:12;98481.34;;;19.02;48.12
50057;BME280;36875;49.468;11.200;2023-05-08T10:28:42;98478.69;;;18.97;48.25
50057;BME280;36875;49.468;11.200;2023-05-08T10:31:11;98482.69;;;19.04;48.40
50057;BME280;36875;49.468;11.200;2023-05-08T10:33:39;98483.78;;;19.03;48.47
50057;BME280;36875;49.468;11.200;2023-05-08T10:36:08;98487.31;;;19.04;48.71
50057;BME280;36875;49.468;11.200;2023-05-08T10:38:35;98480.81;;;19.00;48.44
50057;BME280;36875;49.468;11.200;2023-05-08T10:41:02;98482.69;;;19.04;48.19
50057;BME280;36875;49.468;11.200;2023-05-08T10:43:28;98474.00;;;19.02;48.34
50057;BME280;36875;49.468;11.200;2023-05-08T10:45:56;98474.03;;;18.97;48.17
50057;BME280;36875;49.468;11.200;2023-05-08T10:48:26;98476.16;;;19.00;48.28
50057;BME280;36875;49.468;11.200;2023-05-08T10:51:01;98489.75;;;19.05;48.41
50057;BME280;36875;49.468;11.200;2023-05-08T10:53:37;98486.50;;;19.03;48.27
50057;BME280;36875;49.468;11.200;2023-05-08T10:56:04;98479.97;;;19.04;48.38
50057;BME280;36875;49.468;11.200;2023-05-08T10:58:31;98468.31;;;18.99;48.22
50057;BME280;36875;49.468;11.200;2023-05-08T11:01:14;98469.09;;;18.99;48.63
50057;BME280;36875;49.468;11.200;2023-05-08T11:03:45;98463.94;;;18.98;48.43
50057;BME280;36875;49.468;11.200;2023-05-08T11:06:11;98477.22;;;19.04;48.69
50057;BME280;36875;49.468;11.200;2023-05-08T11:08:50;98484.28;;;19.05;48.62
50057;BME280;36875;49.468;11.200;2023-05-08T11:11:24;98485.13;;;19.06;48.65
50057;BME280;36875;49.468;11.200;2023-05-08T11:13:54;98468.81;;;19.01;48.60
50057;BME280;36875;49.468;11.200;2023-05-08T11:19:20;98475.81;;;19.07;48.64
50057;BME280;36875;49.468;11.200;2023-05-08T11:22:22;98466.84;;;19.06;48.47
50057;BME280;36875;49.468;11.200;2023-05-08T11:24:58;98461.44;;;19.01;48.78
50057;BME280;36875;49.468;11.200;2023-05-08T11:30:44;98471.50;;;19.06;48.51
50057;BME280;36875;49.468;11.200;2023-05-08T11:33:12;98476.63;;;19.07;48.63
50057;BME280;36875;49.468;11.200;2023-05-08T11:35:53;98472.00;;;19.08;48.60
50057;BME280;36875;49.468;11.200;2023-05-08T11:38:25;98467.34;;;19.09;48.29
50057;BME280;36875;49.468;11.200;2023-05-08T11:40:55;98468.44;;;19.07;48.57
50057;BME280;36875;49.468;11.200;2023-05-08T11:43:31;98468.97;;;19.10;48.55
50057;BME280;36875;49.468;11.200;2023-05-08T11:46:03;98463.50;;;19.10;48.66
50057;BME280;36875;49.468;11.200;2023-05-08T11:48:29;98460.25;;;19.07;48.55
50057;BME280;36875;49.468;11.200;2023-05-08T11:50:55;98443.66;;;19.04;48.33
50057;BME280;36875;49.468;11.200;2023-05-08T11:53:21;98467.34;;;19.09;48.48
50057;BME280;36875;49.468;11.200;2023-05-08T11:55:47;98467.06;;;19.10;48.47
50057;BME280;36875;49.468;11.200;2023-05-08T11:58:14;98441.31;;;18.97;48.68
50057;BME280;36875;49.468;11.200;2023-05-08T12:00:40;98462.72;;;19.09;48.63
50057;BME280;36875;49.468;11.200;2023-05-08T12:03:10;98463.50;;;19.10;48.43
50057;BME280;36875;49.468;11.200;2023-05-08T12:05:36;98467.34;;;19.09;48.42
50057;BME280;36875;49.468;11.200;2023-05-08T12:08:02;98464.34;;;19.10;48.60
50057;BME280;36875;49.468;11.200;2023-05-08T12:10:30;98461.91;;;19.09;48.44
50057;BME280;36875;49.468;11.200;2023-05-08T12:12:56;98465.16;;;19.11;48.66
50057;BME280;36875;49.468;11.200;2023-05-08T12:15:21;98465.94;;;19.11;48.17
50057;BME280;36875;49.468;11.200;2023-05-08T12:17:47;98467.88;;;19.11;48.19
50057;BME280;36875;49.468;11.200;2023-05-08T12:20:15;98468.69;;;19.11;48.33
50057;BME280;36875;49.468;11.200;2023-05-08T12:22:48;98464.63;;;19.09;48.14
50057;BME280;36875;49.468;11.200;2023-05-08T12:25:15;98469.81;;;19.10;48.21
50057;BME280;36875;49.468;11.200;2023-05-08T12:27:41;98468.97;;;19.10;48.07
50057;BME280;36875;49.468;11.200;2023-05-08T12:30:09;98465.16;;;19.11;47.94
50057;BME280;36875;49.468;11.200;2023-05-08T12:32:36;98459.75;;;19.05;48.28
50057;BME280;36875;49.468;11.200;2023-05-08T12:35:03;98459.97;;;19.09;48.50
50057;BME280;36875;49.468;11.200;2023-05-08T12:37:30;98462.41;;;19.11;48.35
50057;BME280;36875;49.468;11.200;2023-05-08T12:39:56;98455.66;;;19.08;48.18
50057;BME280;36875;49.468;11.200;2023-05-08T12:42:21;98457.84;;;19.06;48.44
50057;BME280;36875;49.468;11.200;2023-05-08T12:44:51;98464.34;;;19.10;47.90
50057;BME280;36875;49.468;11.200;2023-05-08T12:47:17;98460.25;;;19.07;48.52
50057;BME280;36875;49.468;11.200;2023-05-08T12:49:44;98449.72;;;19.01;48.55
50057;BME280;36875;49.468;11.200;2023-05-08T12:52:12;98463.50;;;19.10;47.98
50057;BME280;36875;49.468;11.200;2023-05-08T12:54:46;98467.06;;;19.10;47.97
50057;BME280;36875;49.468;11.200;2023-05-08T12:57:13;98464.34;;;19.10;48.24
50057;BME280;36875;49.468;11.200;2023-05-08T12:59:39;98471.19;;;19.07;48.14
50057;BME280;36875;49.468;11.200;2023-05-08T13:02:11;98468.16;;;19.09;48.29